Weather at Great Harbour Cay Airport

Public forecast

Using degrees Celsius for public forecast. Weather courtesy of forecast.io.

Closest aviation weather report (METAR) to Great Harbour Cay Airport

Report is more than 2 hours old.

Closest report is Lynden Pindling International Airport, 46.6 nm (86.4 km) SSE.

2024/05/30 07:00 (retrieved 2 hours ago)

MYNN 300700Z VRB02KT 9999 FEW020 25/23 A3000

Closest aviation forecast (TAF) to Great Harbour Cay Airport

Closest forecast is Lynden Pindling International Airport, 46.6 nm (86.4 km) SSE.

2024/05/30 06:00 (retrieved 3 hours ago)

TAF MYNN 300557Z 3006/3106 VRB02KT 9999 FEW030 BECMG 3014/3016 02006KT SCT025